Terminal Aerodrome Forecast
Issued by NWS Austin/San Antonio, TX

Home | Current Version | Previous Version | Text Only | Print | Product List | Glossary On
Versions: 1 2 3 4 5 6 7 8 9 10 11 12 13 14 15 16 17 18 19 20
000
FTUS44 KEWX 301700
TAFSAT
TAF
KSAT 301728Z 3018/3124 05004KT P6SM SCT020
     FM301900 VRB04KT P6SM SCT035
     FM310600 02005KT P6SM BKN030
     FM311000 02008KT 4SM -SHRA BR BKN035
     FM311200 01012G22KT P6SM SCT035 BKN060
     FM311800 02014G24KT P6SM SCT060=

USA.gov is the U.S. government's official web portal to all federal, state and local government web resources and services.